Alabama, New York
Current Conditions -  °F | °C
As of 7:54 PM on Tuesday 21 Oct 2014 (Local Time) from KBUF Reporting Station
Drizzle Drizzle  
Wind Chill: 40°   Ceiling: 600
Heat Index: 46°   Visibility: 4mi
Dew Point: 44°   Wind: 13mph
Humidity: 93%   Direction: 20°NNE
Pressure: 30.02"   Gusts: 20mph
Location:  43.1°N, 78.39°W
Report Text: KBUF 212354Z 02011G17KT 4SM -DZ BR OVC006 08/07 A3002 RMK AO2 CIG 005V009 SLP168 P0001 60001 T00780067 10117 20078 51030
Loading
Personal Weather Stations






























Interactive Weather Map
Tropical Storm Tracking
New forecast layout! Learn more

10-Day Weather Forecast

Advertisements
Track Severe Weather on mobile